Wrights, IL (62098)

4:52 AM CST on December 10, 2016 (GMT -0600)
North Jerseyville | | Change Station

Elev 558 ft 39.15 °N, 90.32 °W | Updated 4 seconds ago

Overcast
Overcast
24.3 °F
Feels Like 24 °F
N
0.0
Wind Variable Wind from SSW
Gusts 0.0 mph

Today
High -- | Low -- °F
--% Chance of Precip.
Yesterday
High -- | Low -- °F
Precip. -- in
Pressure 30.57 in
Visibility 10.0 miles
Clouds Overcast 6000 ft
Windchill 24 °F
Dew Point 16 °F
Humidity 71%
Rainfall 0.00 in
Snow Depth Not available.
7:10 AM 4:37 PM
Waxing Gibbous, 82% visible
METAR KIJX 101035Z AUTO 00000KT 10SM OVC060 M05/M09 A3057 RMK AO2 T10521090
Pressure 30.57 in
Visibility 10.0 miles
Clouds Overcast 6000 ft
Windchill 24 °F
Dew Point 16 °F
Humidity 71%
Rainfall 0.00 in
Snow Depth Not available.
7:10 AM 4:37 PM
Waxing Gibbous, 82% visible
METAR KIJX 101035Z AUTO 00000KT 10SM OVC060 M05/M09 A3057 RMK AO2 T10521090

10-Day Weather Forecast

Almanac

Astronomy

Dec. 10, 2016 Rise Set
Actual Time
Civil Twilight
Nautical Twilight
Astronomical Twilight
Moon
Length of Visible Light
Length of Day
Tomorrow will be .
, % of the Moon is Illuminated

Today's Extremes

State Highs State Lows

Community

WunderPhotos

Upload Photos

1,956,536 photos uploaded!

WunderBlog® & News

Nearby

Air Quality

  Air Quality AQ Index Pollutant
Not available.

Snow Depth

Station Depth Elevation

Earthquake Activity

City Distance Mag. Time & Date
Minimum magnitude displayed is 2.5.

Coastal Water Temperatures

Place Temperature

Stations

Nearby Weather Stations

Station Location Temp. Windchill Dew Point Humidity Wind Precip. Elev Updated Type
                   

Watches & Warnings

There are currently no watches in effect.